createdAt,value
2023-01-22T00:00:18.619Z,14.95
2023-01-22T00:01:09.278Z,13.82
2023-01-22T00:01:56.236Z,13.45
2023-01-22T00:02:43.163Z,13.90
2023-01-22T00:03:30.175Z,14.32
2023-01-22T00:04:17.127Z,14.35
2023-01-22T00:05:05.026Z,13.62
2023-01-22T00:05:52.654Z,13.05
2023-01-22T00:06:39.586Z,13.82
2023-01-22T00:07:26.520Z,13.85
2023-01-22T00:08:13.545Z,14.32
2023-01-22T00:09:04.065Z,13.90
2023-01-22T00:09:50.977Z,13.70
2023-01-22T00:10:37.826Z,14.73
2023-01-22T00:11:24.877Z,14.50
2023-01-22T00:12:11.876Z,13.65
2023-01-22T00:12:58.738Z,13.43
2023-01-22T00:13:45.720Z,13.80
2023-01-22T00:14:32.957Z,13.10
2023-01-22T00:15:19.880Z,14.90
2023-01-22T00:16:08.032Z,13.80
2023-01-22T00:16:55.050Z,13.35
2023-01-22T00:17:42.015Z,14.07
2023-01-22T00:18:28.918Z,13.77
2023-01-22T00:19:15.794Z,13.93
2023-01-22T00:20:02.752Z,14.98
2023-01-22T00:20:51.307Z,13.88
2023-01-22T00:21:38.196Z,13.82
2023-01-22T00:22:25.222Z,13.80
2023-01-22T00:23:12.176Z,14.43
2023-01-22T00:23:59.066Z,14.55
2023-01-22T00:24:45.937Z,13.50
2023-01-22T00:25:33.115Z,14.02
2023-01-22T00:26:21.226Z,14.55
2023-01-22T00:27:08.163Z,13.98
2023-01-22T00:27:55.661Z,14.38
2023-01-22T00:28:45.435Z,14.15
2023-01-22T00:29:32.405Z,13.98
2023-01-22T00:30:19.870Z,13.77
2023-01-22T00:31:07.285Z,13.73
2023-01-22T00:31:54.325Z,14.25
2023-01-22T00:32:41.267Z,13.05
2023-01-22T00:33:28.756Z,13.02
2023-01-22T00:34:15.667Z,14.50
2023-01-22T00:35:02.597Z,13.27
2023-01-22T00:35:49.487Z,13.38
2023-01-22T00:36:36.341Z,13.77
2023-01-22T00:37:23.276Z,13.68
2023-01-22T00:38:10.112Z,14.38
2023-01-22T00:38:56.985Z,13.65
2023-01-22T00:39:43.903Z,14.52
2023-01-22T00:40:30.876Z,14.87
2023-01-22T00:41:19.049Z,14.13
2023-01-22T00:42:06.000Z,13.65
2023-01-22T00:42:52.869Z,13.68
2023-01-22T00:43:40.783Z,15.00
2023-01-22T00:44:27.644Z,13.98
2023-01-22T00:45:15.249Z,13.95
2023-01-22T00:46:02.357Z,13.23
2023-01-22T00:46:49.388Z,13.90
2023-01-22T00:47:36.355Z,14.95
2023-01-22T00:48:23.295Z,13.70
2023-01-22T00:49:10.179Z,13.35
2023-01-22T00:49:57.063Z,15.13
2023-01-22T00:50:44.018Z,14.23
2023-01-22T00:51:30.991Z,14.55
2023-01-22T00:52:17.954Z,14.52
2023-01-22T00:53:04.855Z,14.50
2023-01-22T00:53:51.780Z,15.18
2023-01-22T00:54:38.745Z,17.70
2023-01-22T00:55:25.631Z,16.92
2023-01-22T00:56:14.025Z,17.10
2023-01-22T00:57:00.946Z,17.17
2023-01-22T00:57:47.879Z,17.08
2023-01-22T00:58:34.989Z,16.55
2023-01-22T00:59:21.876Z,17.50
2023-01-22T01:00:09.542Z,17.15
2023-01-22T01:00:56.529Z,17.42
2023-01-22T01:01:43.479Z,18.20
2023-01-22T01:02:30.448Z,16.95
2023-01-22T01:03:27.094Z,17.05
2023-01-22T01:04:14.747Z,16.40
2023-01-22T01:05:02.138Z,16.00
2023-01-22T01:05:49.042Z,16.85
2023-01-22T01:06:35.980Z,16.37
2023-01-22T01:07:23.078Z,17.50
2023-01-22T01:08:09.962Z,16.40
2023-01-22T01:08:57.442Z,17.20
2023-01-22T01:09:44.366Z,16.65
2023-01-22T01:10:31.295Z,16.65
2023-01-22T01:11:22.918Z,17.42
2023-01-22T01:12:09.877Z,16.55
2023-01-22T01:12:56.864Z,18.20
2023-01-22T01:13:44.426Z,17.83
2023-01-22T01:14:31.404Z,17.52
2023-01-22T01:15:18.375Z,17.23
2023-01-22T01:16:08.928Z,16.65
2023-01-22T01:16:58.385Z,17.62
2023-01-22T01:17:46.519Z,16.95
2023-01-22T01:18:34.107Z,17.15
2023-01-22T01:19:21.114Z,17.33
2023-01-22T01:20:08.568Z,17.00
2023-01-22T01:20:56.826Z,17.12
2023-01-22T01:21:44.379Z,17.33
2023-01-22T01:22:31.287Z,17.52
2023-01-22T01:23:18.217Z,17.92
2023-01-22T01:24:05.530Z,17.25
2023-01-22T01:24:52.404Z,17.60
2023-01-22T01:25:41.549Z,18.00
2023-01-22T01:26:29.408Z,18.17
2023-01-22T01:27:16.308Z,17.95
2023-01-22T01:28:05.471Z,17.55
2023-01-22T01:28:52.905Z,17.77
2023-01-22T01:29:40.356Z,18.25
2023-01-22T01:30:27.343Z,17.52
2023-01-22T01:31:16.531Z,17.40
2023-01-22T01:32:03.767Z,17.08
2023-01-22T01:32:50.686Z,18.08
2023-01-22T01:33:37.667Z,17.52
2023-01-22T01:34:24.548Z,17.67
2023-01-22T01:35:11.462Z,18.23
2023-01-22T01:36:04.027Z,18.12
2023-01-22T01:36:50.872Z,18.27
2023-01-22T01:37:37.791Z,16.65
2023-01-22T01:38:24.686Z,18.35
2023-01-22T01:39:11.645Z,18.77
2023-01-22T01:39:58.548Z,19.40
2023-01-22T01:40:45.586Z,17.95
2023-01-22T01:41:32.516Z,18.52
2023-01-22T01:42:30.569Z,18.37
2023-01-22T01:43:18.358Z,18.33
2023-01-22T01:44:17.685Z,18.58
2023-01-22T01:45:25.135Z,17.65
2023-01-22T01:46:17.674Z,18.05
2023-01-22T01:47:06.395Z,17.23
2023-01-22T01:48:23.969Z,17.98
2023-01-22T01:49:17.269Z,18.25
2023-01-22T01:50:04.613Z,18.10
2023-01-22T01:51:13.164Z,17.80
2023-01-22T01:52:01.982Z,18.10
2023-01-22T01:52:49.104Z,18.98
2023-01-22T01:53:36.711Z,19.08
2023-01-22T01:54:23.986Z,18.67
2023-01-22T01:55:11.323Z,20.05
2023-01-22T01:55:59.409Z,18.55
2023-01-22T01:56:50.106Z,18.62
2023-01-22T01:58:25.100Z,18.30
2023-01-22T01:59:14.978Z,18.80
2023-01-22T02:00:05.523Z,18.58
2023-01-22T02:01:41.141Z,17.15
2023-01-22T02:02:28.125Z,18.10
2023-01-22T02:03:15.105Z,19.23
2023-01-22T02:04:02.135Z,18.40
2023-01-22T02:04:50.245Z,18.40
2023-01-22T02:05:39.001Z,18.83
2023-01-22T02:06:25.997Z,20.00
2023-01-22T02:07:12.885Z,19.05
2023-01-22T02:07:59.932Z,19.73
2023-01-22T02:08:48.704Z,20.27
2023-01-22T02:09:35.627Z,20.88
2023-01-22T02:10:22.525Z,20.65
2023-01-22T02:11:10.389Z,21.15
2023-01-22T02:11:57.407Z,19.95
2023-01-22T02:12:44.316Z,19.85
2023-01-22T02:13:33.035Z,20.98
2023-01-22T02:14:33.204Z,20.65
2023-01-22T02:15:20.098Z,20.20
2023-01-22T02:16:08.039Z,19.77
2023-01-22T02:17:15.525Z,20.20
2023-01-22T02:18:02.452Z,19.73
2023-01-22T02:18:50.015Z,20.33
2023-01-22T02:19:36.991Z,19.95
2023-01-22T02:20:23.928Z,20.67
2023-01-22T02:21:46.415Z,20.30
2023-01-22T02:22:37.035Z,19.27
2023-01-22T02:24:14.031Z,18.40
2023-01-22T02:25:01.707Z,19.80
2023-01-22T02:25:48.616Z,20.58
2023-01-22T02:26:36.024Z,20.10
2023-01-22T02:27:22.946Z,20.60
2023-01-22T02:28:09.838Z,21.12
2023-01-22T02:28:56.779Z,20.62
2023-01-22T02:29:43.617Z,20.58
2023-01-22T02:30:30.625Z,19.73
2023-01-22T02:31:17.542Z,20.88
2023-01-22T02:32:05.075Z,21.23
2023-01-22T02:32:51.957Z,21.08
2023-01-22T02:33:38.945Z,21.58
2023-01-22T02:34:25.859Z,20.48
2023-01-22T02:35:12.746Z,21.35
2023-01-22T02:35:59.704Z,21.17
2023-01-22T02:36:46.639Z,20.45
2023-01-22T02:37:33.505Z,20.70
2023-01-22T02:38:20.367Z,20.30
2023-01-22T02:39:07.712Z,21.20
2023-01-22T02:39:54.719Z,20.42
2023-01-22T02:40:49.520Z,21.48
2023-01-22T02:41:36.515Z,19.85
2023-01-22T02:42:23.429Z,20.98
2023-01-22T02:43:10.296Z,21.02
2023-01-22T02:43:57.177Z,21.45
2023-01-22T02:44:44.125Z,21.12
2023-01-22T02:45:31.127Z,21.48
2023-01-22T02:46:18.386Z,20.52
2023-01-22T02:47:05.536Z,22.25
2023-01-22T02:47:52.587Z,22.13
2023-01-22T02:48:39.485Z,22.98
2023-01-22T02:49:26.483Z,21.50
2023-01-22T02:50:13.466Z,20.40
2023-01-22T02:51:00.432Z,22.92
2023-01-22T02:51:47.427Z,20.98
2023-01-22T02:52:34.504Z,21.10
2023-01-22T02:53:21.395Z,23.15
2023-01-22T02:54:08.335Z,21.12
2023-01-22T02:54:55.203Z,21.73
2023-01-22T02:55:45.107Z,20.95
2023-01-22T02:56:33.751Z,21.65
2023-01-22T02:57:20.685Z,20.85
2023-01-22T02:58:07.678Z,20.67
2023-01-22T02:58:54.656Z,21.08
2023-01-22T02:59:41.584Z,20.92
2023-01-22T03:00:28.445Z,21.37
2023-01-22T03:01:24.087Z,21.48
2023-01-22T03:02:11.083Z,20.58
2023-01-22T03:02:58.187Z,22.02
2023-01-22T03:04:11.537Z,22.10
2023-01-22T03:05:03.707Z,20.23
2023-01-22T03:05:51.785Z,21.55
2023-01-22T03:06:41.881Z,21.42
2023-01-22T03:07:42.232Z,17.12
2023-01-22T03:08:29.195Z,21.27
2023-01-22T03:09:17.535Z,20.00
2023-01-22T03:10:04.727Z,22.70
2023-01-22T03:10:51.652Z,22.20
2023-01-22T03:11:40.587Z,22.75
2023-01-22T03:12:28.376Z,22.50
2023-01-22T03:13:33.686Z,22.60
2023-01-22T03:14:39.245Z,20.52
2023-01-22T03:15:44.816Z,21.55
2023-01-22T03:16:50.911Z,21.20
2023-01-22T03:17:56.528Z,22.25
2023-01-22T03:19:02.010Z,21.40
2023-01-22T03:20:07.496Z,20.05
2023-01-22T03:21:13.246Z,20.75
2023-01-22T03:22:00.116Z,20.37
2023-01-22T03:22:46.999Z,21.65
2023-01-22T03:23:33.900Z,22.77
2023-01-22T03:24:20.865Z,21.70
2023-01-22T03:25:08.115Z,22.98
2023-01-22T03:25:57.085Z,21.85
2023-01-22T03:26:43.969Z,20.90
2023-01-22T03:27:31.884Z,22.73
2023-01-22T03:28:19.531Z,23.23
2023-01-22T03:29:06.431Z,21.55
2023-01-22T03:29:53.423Z,21.77
2023-01-22T03:30:40.363Z,21.75
2023-01-22T03:31:27.324Z,21.98
2023-01-22T03:32:14.913Z,22.23
2023-01-22T03:33:01.828Z,22.23
2023-01-22T03:33:48.765Z,21.40
2023-01-22T03:34:35.895Z,22.15
2023-01-22T03:35:22.842Z,22.00
2023-01-22T03:36:13.501Z,23.75
2023-01-22T03:37:48.434Z,20.98
2023-01-22T03:38:35.396Z,21.85
2023-01-22T03:39:22.415Z,21.67
2023-01-22T03:40:29.440Z,23.23
2023-01-22T03:41:18.088Z,22.33
2023-01-22T03:42:05.306Z,22.20
2023-01-22T03:42:53.761Z,22.48
2023-01-22T03:43:40.967Z,22.95
2023-01-22T03:44:27.888Z,23.05
2023-01-22T03:45:14.798Z,22.62
2023-01-22T03:46:11.250Z,23.25
2023-01-22T03:46:58.196Z,22.42
2023-01-22T03:47:45.058Z,22.48
2023-01-22T03:48:32.213Z,23.12
2023-01-22T03:49:19.115Z,22.27
2023-01-22T03:50:06.674Z,22.27
2023-01-22T03:50:53.624Z,22.40
2023-01-22T03:51:40.997Z,24.25
2023-01-22T03:52:27.953Z,22.40
2023-01-22T03:53:14.795Z,22.60
2023-01-22T03:54:01.730Z,22.08
2023-01-22T03:54:48.608Z,22.08
2023-01-22T03:55:35.541Z,22.50
2023-01-22T03:56:24.011Z,24.27
2023-01-22T03:57:10.932Z,22.35
2023-01-22T03:57:57.890Z,22.02
2023-01-22T03:58:45.458Z,23.42
2023-01-22T03:59:32.305Z,22.42
2023-01-22T04:00:19.871Z,22.92
2023-01-22T04:01:09.484Z,23.83
2023-01-22T04:01:56.433Z,23.05
2023-01-22T04:02:43.403Z,22.05
2023-01-22T04:03:30.725Z,23.75
2023-01-22T04:04:17.656Z,23.95
2023-01-22T04:05:04.906Z,22.67
2023-01-22T04:05:51.947Z,24.00
2023-01-22T04:06:38.834Z,23.23
2023-01-22T04:07:25.907Z,22.50
2023-01-22T04:08:12.816Z,22.58
2023-01-22T04:08:59.737Z,23.05
2023-01-22T04:09:46.656Z,22.90
2023-01-22T04:10:33.577Z,22.48
2023-01-22T04:11:21.079Z,23.02
2023-01-22T04:12:08.281Z,23.42
2023-01-22T04:12:55.195Z,23.62
2023-01-22T04:13:43.756Z,22.75
2023-01-22T04:14:30.647Z,23.83
2023-01-22T04:15:17.592Z,22.60
2023-01-22T04:16:05.087Z,22.55
2023-01-22T04:16:52.212Z,23.08
2023-01-22T04:17:39.208Z,23.95
2023-01-22T04:18:26.046Z,21.75
2023-01-22T04:19:13.012Z,24.10
2023-01-22T04:19:59.935Z,23.23
2023-01-22T04:20:49.333Z,23.42
2023-01-22T04:21:36.237Z,21.85
2023-01-22T04:22:23.099Z,23.02
2023-01-22T04:23:10.165Z,22.80
2023-01-22T04:23:57.116Z,23.30
2023-01-22T04:24:44.035Z,24.55
2023-01-22T04:25:30.984Z,23.48
2023-01-22T04:26:17.882Z,22.65
2023-01-22T04:27:04.779Z,22.77
2023-01-22T04:27:51.645Z,23.15
2023-01-22T04:28:38.527Z,21.95
2023-01-22T04:29:25.385Z,23.52
2023-01-22T04:30:12.772Z,23.87
2023-01-22T04:31:00.104Z,22.67
2023-01-22T04:31:47.151Z,23.00
2023-01-22T04:32:34.073Z,24.85
2023-01-22T04:33:21.286Z,23.15
2023-01-22T04:34:08.609Z,23.48
2023-01-22T04:34:55.526Z,22.65
2023-01-22T04:35:42.648Z,22.73
2023-01-22T04:36:29.571Z,24.48
2023-01-22T04:37:16.448Z,24.58
2023-01-22T04:38:04.474Z,23.00
2023-01-22T04:38:51.333Z,22.90
2023-01-22T04:39:38.248Z,23.33
2023-01-22T04:40:25.575Z,23.12
2023-01-22T04:41:12.466Z,22.87
2023-01-22T04:41:59.394Z,23.17
2023-01-22T04:42:46.847Z,25.17
2023-01-22T04:43:33.777Z,23.80
2023-01-22T04:44:20.646Z,23.50
2023-01-22T04:45:08.352Z,21.67
2023-01-22T04:45:55.286Z,23.70
2023-01-22T04:46:42.155Z,22.50
2023-01-22T04:47:29.075Z,24.17
2023-01-22T04:48:15.983Z,22.92
2023-01-22T04:49:02.892Z,24.10
2023-01-22T04:49:49.835Z,24.02
2023-01-22T04:50:36.847Z,23.30
2023-01-22T04:51:23.814Z,23.42
2023-01-22T04:52:10.796Z,23.45
2023-01-22T04:52:58.127Z,23.62
2023-01-22T04:53:45.086Z,23.00
2023-01-22T04:54:31.997Z,23.30
2023-01-22T04:55:18.927Z,22.73
2023-01-22T04:56:06.046Z,23.50
2023-01-22T04:56:53.091Z,23.15
2023-01-22T04:57:40.004Z,23.58
2023-01-22T04:58:26.953Z,22.62
2023-01-22T04:59:13.904Z,22.87
2023-01-22T05:00:00.816Z,22.73
2023-01-22T05:00:47.704Z,22.73
2023-01-22T05:01:34.654Z,23.40
2023-01-22T05:02:21.736Z,22.33
2023-01-22T05:03:08.778Z,22.45
2023-01-22T05:03:55.665Z,23.85
2023-01-22T05:04:42.585Z,22.40
2023-01-22T05:05:30.377Z,23.17
2023-01-22T05:06:17.247Z,21.45
2023-01-22T05:07:04.163Z,23.40
2023-01-22T05:07:51.065Z,23.38
2023-01-22T05:08:37.992Z,23.12
2023-01-22T05:09:26.426Z,22.60
2023-01-22T05:10:13.295Z,23.95
2023-01-22T05:11:03.463Z,21.67
2023-01-22T05:11:50.578Z,21.75
2023-01-22T05:12:37.490Z,22.08
2023-01-22T05:13:24.375Z,22.33
2023-01-22T05:14:11.325Z,22.85
2023-01-22T05:14:59.509Z,22.48
2023-01-22T05:15:46.484Z,22.73
2023-01-22T05:16:33.716Z,22.02
2023-01-22T05:17:21.164Z,23.17
2023-01-22T05:18:08.138Z,22.13
2023-01-22T05:18:55.051Z,22.58
2023-01-22T05:19:41.916Z,22.20
2023-01-22T05:20:28.893Z,21.70
2023-01-22T05:21:15.872Z,22.23
2023-01-22T05:22:02.767Z,22.02
2023-01-22T05:22:50.030Z,21.62
2023-01-22T05:23:36.986Z,21.27
2023-01-22T05:24:23.923Z,22.30
2023-01-22T05:25:10.826Z,21.58
2023-01-22T05:25:57.842Z,22.58
2023-01-22T05:26:45.205Z,22.27
2023-01-22T05:27:32.204Z,22.62
2023-01-22T05:28:19.169Z,21.98
2023-01-22T05:29:06.108Z,22.17
2023-01-22T05:29:52.956Z,22.85
2023-01-22T05:30:39.917Z,21.37
2023-01-22T05:31:26.889Z,22.60
2023-01-22T05:32:15.832Z,21.92
2023-01-22T05:33:02.739Z,23.10
2023-01-22T05:33:49.626Z,21.05
2023-01-22T05:34:36.475Z,22.00
2023-01-22T05:35:23.862Z,23.60
2023-01-22T05:36:12.905Z,22.73
2023-01-22T05:36:59.932Z,22.08
2023-01-22T05:37:46.805Z,22.20
2023-01-22T05:38:33.712Z,22.13
2023-01-22T05:39:23.057Z,22.33
2023-01-22T05:40:11.414Z,20.90
2023-01-22T05:40:58.418Z,21.42
2023-01-22T05:41:45.583Z,21.35
2023-01-22T05:42:32.715Z,22.60
2023-01-22T05:43:19.707Z,21.73
2023-01-22T05:44:07.129Z,21.95
2023-01-22T05:44:54.048Z,23.42
2023-01-22T05:45:40.973Z,21.83
2023-01-22T05:46:27.938Z,23.92
2023-01-22T05:47:15.357Z,22.15
2023-01-22T05:48:02.266Z,22.30
2023-01-22T05:48:49.174Z,22.25
2023-01-22T05:49:36.118Z,22.85
2023-01-22T05:50:22.990Z,22.62
2023-01-22T05:51:10.597Z,22.20
2023-01-22T05:51:57.450Z,22.27
2023-01-22T05:52:44.403Z,23.02
2023-01-22T05:53:31.375Z,23.80
2023-01-22T05:54:18.405Z,23.20
2023-01-22T05:55:05.738Z,23.25
2023-01-22T05:55:52.685Z,24.37
2023-01-22T05:56:39.568Z,22.67
2023-01-22T05:57:28.092Z,24.37
2023-01-22T05:58:14.984Z,24.15
2023-01-22T05:59:01.977Z,22.58
2023-01-22T05:59:48.943Z,23.12
2023-01-22T06:00:36.031Z,22.17
2023-01-22T06:01:23.081Z,23.05
2023-01-22T06:02:10.176Z,22.02
2023-01-22T06:03:01.100Z,22.23
2023-01-22T06:03:48.074Z,24.20
2023-01-22T06:04:35.117Z,22.50
2023-01-22T06:05:22.049Z,22.65
2023-01-22T06:06:11.930Z,23.10
2023-01-22T06:06:58.828Z,22.00
2023-01-22T06:07:45.736Z,23.40
2023-01-22T06:08:34.349Z,22.15
2023-01-22T06:09:21.387Z,23.02
2023-01-22T06:10:08.978Z,23.38
2023-01-22T06:11:03.531Z,22.50
2023-01-22T06:11:50.897Z,22.33
2023-01-22T06:12:37.766Z,22.10
2023-01-22T06:13:24.648Z,21.83
2023-01-22T06:14:11.631Z,23.65
2023-01-22T06:14:58.644Z,22.48
2023-01-22T06:15:45.630Z,21.80
2023-01-22T06:16:32.686Z,23.05
2023-01-22T06:17:19.566Z,22.15
2023-01-22T06:18:06.593Z,22.02
2023-01-22T06:18:53.487Z,23.38
2023-01-22T06:19:40.421Z,23.00
2023-01-22T06:20:27.346Z,22.23
2023-01-22T06:21:14.270Z,22.65
2023-01-22T06:22:01.191Z,23.75
2023-01-22T06:22:51.407Z,22.20
2023-01-22T06:23:38.391Z,23.90
2023-01-22T06:24:25.307Z,21.50
2023-01-22T06:25:12.186Z,25.98
2023-01-22T06:26:00.468Z,26.37
2023-01-22T06:26:47.398Z,25.73
2023-01-22T06:27:34.291Z,26.27
2023-01-22T06:28:22.097Z,25.12
2023-01-22T06:29:08.950Z,24.70
2023-01-22T06:29:55.863Z,24.10
2023-01-22T06:30:42.811Z,24.25
2023-01-22T06:31:29.864Z,23.67
2023-01-22T06:32:16.913Z,23.60
2023-01-22T06:33:03.979Z,22.42
2023-01-22T06:33:50.933Z,24.10
2023-01-22T06:34:38.842Z,23.58
2023-01-22T06:35:25.772Z,24.10
2023-01-22T06:36:12.671Z,24.25
2023-01-22T06:36:59.624Z,23.62
2023-01-22T06:37:47.472Z,24.60
2023-01-22T06:38:35.168Z,22.42
2023-01-22T06:39:22.155Z,22.92
2023-01-22T06:40:09.926Z,24.67
2023-01-22T06:40:58.975Z,25.00
2023-01-22T06:41:48.298Z,25.37
2023-01-22T06:42:37.382Z,23.10
2023-01-22T06:43:25.114Z,25.92
2023-01-22T06:44:12.093Z,25.08
2023-01-22T06:44:58.974Z,24.60
2023-01-22T06:45:45.927Z,22.42
2023-01-22T06:46:32.807Z,24.55
2023-01-22T06:47:19.713Z,23.62
2023-01-22T06:48:06.782Z,23.85
2023-01-22T06:48:53.767Z,23.52
2023-01-22T06:49:40.632Z,24.15
2023-01-22T06:50:27.517Z,23.02
2023-01-22T06:51:14.479Z,23.10
2023-01-22T06:52:01.416Z,24.73
2023-01-22T06:52:48.371Z,26.17
2023-01-22T06:53:35.256Z,23.75
2023-01-22T06:54:22.449Z,26.00
2023-01-22T06:55:09.766Z,25.02
2023-01-22T06:55:59.573Z,24.77
2023-01-22T06:56:46.507Z,26.40
2023-01-22T06:57:33.489Z,24.73
2023-01-22T06:58:20.417Z,24.87
2023-01-22T06:59:07.526Z,25.27
2023-01-22T06:59:54.868Z,25.50
2023-01-22T07:00:41.795Z,25.17
2023-01-22T07:01:28.782Z,24.50
2023-01-22T07:02:20.195Z,24.85
2023-01-22T07:03:08.257Z,23.73
2023-01-22T07:03:55.301Z,25.73
2023-01-22T07:04:42.242Z,24.15
2023-01-22T07:05:29.301Z,23.30
2023-01-22T07:06:18.967Z,24.63
2023-01-22T07:07:05.925Z,23.33
2023-01-22T07:07:55.048Z,23.52
2023-01-22T07:08:42.055Z,24.75
2023-01-22T07:09:28.966Z,24.27
2023-01-22T07:10:16.513Z,24.30
2023-01-22T07:11:05.682Z,24.27
2023-01-22T07:11:54.047Z,24.45
2023-01-22T07:12:41.311Z,23.10
2023-01-22T07:13:28.480Z,26.48
2023-01-22T07:14:15.552Z,24.42
2023-01-22T07:15:03.607Z,23.27
2023-01-22T07:15:50.798Z,24.10
2023-01-22T07:16:37.869Z,24.48
2023-01-22T07:17:24.841Z,24.85
2023-01-22T07:18:14.621Z,24.02
2023-01-22T07:19:01.597Z,23.90
2023-01-22T07:19:48.535Z,23.85
2023-01-22T07:20:35.572Z,24.05
2023-01-22T07:21:22.610Z,24.45
2023-01-22T07:22:09.587Z,25.40
2023-01-22T07:22:59.941Z,24.50
2023-01-22T07:23:47.078Z,25.52
2023-01-22T07:24:34.071Z,25.25
2023-01-22T07:25:21.042Z,23.70
2023-01-22T07:26:08.188Z,24.17
2023-01-22T07:26:55.126Z,26.25
2023-01-22T07:27:42.099Z,24.02
2023-01-22T07:28:29.078Z,23.75
2023-01-22T07:29:15.986Z,24.00
2023-01-22T07:30:03.480Z,23.80
2023-01-22T07:30:50.959Z,23.48
2023-01-22T07:31:37.976Z,23.98
2023-01-22T07:32:24.992Z,24.00
2023-01-22T07:33:12.367Z,23.65
2023-01-22T07:33:59.288Z,23.75
2023-01-22T07:34:46.214Z,23.50
2023-01-22T07:35:33.244Z,23.27
2023-01-22T07:36:20.268Z,24.65
2023-01-22T07:37:07.166Z,24.05
2023-01-22T07:37:56.123Z,25.60
2023-01-22T07:38:43.046Z,25.73
2023-01-22T07:39:30.338Z,25.23
2023-01-22T07:40:17.638Z,25.70
2023-01-22T07:41:16.994Z,22.85
2023-01-22T07:42:12.923Z,23.77
2023-01-22T07:43:00.037Z,22.10
2023-01-22T07:43:49.510Z,21.73
2023-01-22T07:44:40.534Z,21.35
2023-01-22T07:45:27.536Z,24.65
2023-01-22T07:46:14.528Z,23.38
2023-01-22T07:47:01.517Z,23.92
2023-01-22T07:47:54.718Z,23.15
2023-01-22T07:48:42.450Z,25.30
2023-01-22T07:49:30.473Z,23.20
2023-01-22T07:50:17.744Z,23.98
2023-01-22T07:51:06.656Z,23.83
2023-01-22T07:51:53.639Z,25.25
2023-01-22T07:52:41.121Z,24.35
2023-01-22T07:53:28.708Z,23.33
2023-01-22T07:54:18.329Z,22.92
2023-01-22T07:55:06.182Z,23.67
2023-01-22T07:55:53.143Z,24.02
2023-01-22T07:56:40.114Z,22.95
2023-01-22T07:57:27.095Z,24.48
2023-01-22T07:58:14.147Z,25.77
2023-01-22T07:59:01.121Z,24.87
2023-01-22T07:59:48.156Z,25.48
2023-01-22T08:00:35.928Z,24.52
2023-01-22T08:01:23.094Z,23.83
2023-01-22T08:02:14.769Z,23.45
2023-01-22T08:03:03.903Z,25.00
2023-01-22T08:03:51.013Z,23.23
2023-01-22T08:04:37.949Z,23.70
2023-01-22T08:05:25.232Z,24.70
2023-01-22T08:06:16.037Z,25.60
2023-01-22T08:07:03.517Z,23.90
2023-01-22T08:07:50.507Z,25.48
2023-01-22T08:08:37.774Z,25.80
2023-01-22T08:09:27.519Z,25.65
2023-01-22T08:10:15.459Z,25.98
2023-01-22T08:11:02.561Z,25.30
2023-01-22T08:11:49.549Z,25.37
2023-01-22T08:12:41.566Z,25.58
2023-01-22T08:13:28.518Z,25.80
2023-01-22T08:14:15.527Z,24.98
2023-01-22T08:15:02.564Z,23.73
2023-01-22T08:15:49.641Z,25.23
2023-01-22T08:16:37.144Z,23.92
2023-01-22T08:17:24.239Z,23.80
2023-01-22T08:18:12.329Z,24.48
2023-01-22T08:18:59.267Z,23.65
2023-01-22T08:19:46.208Z,23.65
2023-01-22T08:20:33.561Z,24.30
2023-01-22T08:21:20.572Z,22.42
2023-01-22T08:22:07.936Z,21.33
2023-01-22T08:23:01.600Z,21.73
2023-01-22T08:23:49.364Z,23.90
2023-01-22T08:24:36.780Z,22.73
2023-01-22T08:25:23.846Z,23.42
2023-01-22T08:26:10.896Z,21.45
2023-01-22T08:26:58.037Z,22.90
2023-01-22T08:27:45.020Z,23.02
2023-01-22T08:28:32.246Z,21.37
2023-01-22T08:29:19.300Z,21.83
2023-01-22T08:30:07.992Z,22.37
2023-01-22T08:31:02.471Z,22.20
2023-01-22T08:31:50.220Z,21.45
2023-01-22T08:32:39.631Z,20.98
2023-01-22T08:33:27.259Z,21.48
2023-01-22T08:34:14.216Z,20.85
2023-01-22T08:35:01.100Z,20.40
2023-01-22T08:35:48.166Z,20.95
2023-01-22T08:36:35.064Z,22.15
2023-01-22T08:37:22.981Z,21.02
2023-01-22T08:38:09.884Z,21.33
2023-01-22T08:38:56.824Z,19.00
2023-01-22T08:39:43.830Z,19.35
2023-01-22T08:40:30.718Z,20.77
2023-01-22T08:41:17.638Z,19.35
2023-01-22T08:42:04.569Z,18.87
2023-01-22T08:42:52.797Z,21.42
2023-01-22T08:43:39.797Z,21.12
2023-01-22T08:44:27.001Z,19.87
2023-01-22T08:45:13.955Z,18.98
2023-01-22T08:46:00.942Z,18.58
2023-01-22T08:46:47.898Z,19.45
2023-01-22T08:47:34.955Z,18.65
2023-01-22T08:48:21.883Z,18.75
2023-01-22T08:49:08.892Z,20.02
2023-01-22T08:49:55.845Z,18.83
2023-01-22T08:50:42.834Z,18.77
2023-01-22T08:51:30.663Z,19.10
2023-01-22T08:52:18.947Z,20.48
2023-01-22T08:53:05.946Z,18.90
2023-01-22T08:53:53.048Z,18.40
2023-01-22T08:54:39.962Z,19.17
2023-01-22T08:55:29.553Z,18.95
2023-01-22T08:56:16.517Z,20.08
2023-01-22T08:57:03.539Z,17.73
2023-01-22T08:57:54.510Z,18.90
2023-01-22T08:58:41.451Z,18.52
2023-01-22T08:59:30.786Z,17.62
2023-01-22T09:00:18.375Z,18.02
2023-01-22T09:01:05.865Z,17.40
2023-01-22T09:01:52.981Z,17.75
2023-01-22T09:02:39.959Z,18.33
2023-01-22T09:03:26.980Z,17.75
2023-01-22T09:04:13.985Z,18.15
2023-01-22T09:05:00.938Z,17.83
2023-01-22T09:05:47.970Z,17.80
2023-01-22T09:06:37.046Z,17.95
2023-01-22T09:07:24.081Z,17.23
2023-01-22T09:08:11.006Z,17.52
2023-01-22T09:08:59.136Z,17.48
2023-01-22T09:09:46.147Z,17.98
2023-01-22T09:10:33.048Z,18.33
2023-01-22T09:11:20.061Z,18.65
2023-01-22T09:12:07.010Z,18.00
2023-01-22T09:12:54.008Z,17.98
2023-01-22T09:13:40.907Z,18.48
2023-01-22T09:14:27.817Z,18.12
2023-01-22T09:15:15.406Z,18.50
2023-01-22T09:16:02.364Z,18.83
2023-01-22T09:16:49.365Z,18.17
2023-01-22T09:17:36.378Z,18.00
2023-01-22T09:18:23.402Z,18.80
2023-01-22T09:19:10.667Z,17.95
2023-01-22T09:19:57.554Z,19.30
2023-01-22T09:20:45.417Z,19.75
2023-01-22T09:21:34.087Z,20.62
2023-01-22T09:22:21.079Z,18.85
2023-01-22T09:23:08.123Z,18.83
2023-01-22T09:23:55.025Z,18.62
2023-01-22T09:24:42.004Z,17.70
2023-01-22T09:25:29.681Z,17.10
2023-01-22T09:26:16.817Z,17.87
2023-01-22T09:27:03.942Z,16.62
2023-01-22T09:27:50.825Z,17.77
2023-01-22T09:28:37.790Z,17.55
2023-01-22T09:29:24.851Z,17.35
2023-01-22T09:30:14.708Z,17.37
2023-01-22T09:31:02.197Z,17.40
2023-01-22T09:31:51.419Z,16.92
2023-01-22T09:32:38.430Z,17.52
2023-01-22T09:33:25.297Z,17.55
2023-01-22T09:34:12.202Z,17.08
2023-01-22T09:34:59.211Z,16.98
2023-01-22T09:35:46.104Z,16.58
2023-01-22T09:36:33.151Z,17.37
2023-01-22T09:37:20.473Z,16.67
2023-01-22T09:38:07.407Z,17.70
2023-01-22T09:38:54.447Z,17.90
2023-01-22T09:39:41.395Z,18.40
2023-01-22T09:40:36.842Z,16.87
2023-01-22T09:41:35.226Z,17.08
2023-01-22T09:42:27.583Z,16.42
2023-01-22T09:43:34.520Z,17.52
2023-01-22T09:44:43.686Z,16.23
2023-01-22T09:45:30.755Z,15.65
2023-01-22T09:46:50.048Z,17.37
2023-01-22T09:47:49.866Z,16.67
2023-01-22T09:48:43.077Z,17.40
2023-01-22T09:49:45.807Z,16.85
2023-01-22T09:50:33.966Z,17.37
2023-01-22T09:51:22.480Z,17.33
2023-01-22T09:52:10.287Z,19.05
2023-01-22T09:52:59.281Z,16.30
2023-01-22T09:53:54.463Z,16.80
2023-01-22T09:54:42.445Z,18.50
2023-01-22T09:55:33.431Z,17.52
2023-01-22T09:56:26.916Z,17.27
2023-01-22T09:57:30.683Z,18.00
2023-01-22T09:58:22.301Z,17.55
2023-01-22T09:59:16.718Z,16.87
2023-01-22T10:00:04.245Z,14.80
2023-01-22T10:01:04.602Z,16.33
2023-01-22T10:02:00.687Z,16.40
2023-01-22T10:02:50.411Z,16.92
2023-01-22T10:03:40.952Z,16.53
2023-01-22T10:04:37.099Z,16.60
2023-01-22T10:05:28.239Z,17.15
2023-01-22T10:06:18.985Z,16.87
2023-01-22T10:07:10.336Z,17.83
2023-01-22T10:08:33.902Z,17.90
2023-01-22T10:09:21.226Z,16.20
2023-01-22T10:10:23.036Z,16.75
2023-01-22T10:11:10.527Z,16.23
2023-01-22T10:11:58.991Z,17.02
2023-01-22T10:12:50.701Z,15.43
2023-01-22T10:13:39.177Z,16.25
2023-01-22T10:14:29.075Z,17.00
2023-01-22T10:15:18.996Z,17.15
2023-01-22T10:16:06.695Z,17.75
2023-01-22T10:16:53.843Z,16.85
2023-01-22T10:17:41.282Z,17.92
2023-01-22T10:18:40.114Z,16.92
2023-01-22T10:19:44.763Z,18.05
2023-01-22T10:20:32.632Z,16.35
2023-01-22T10:21:19.598Z,16.48
2023-01-22T10:22:12.683Z,16.52
2023-01-22T10:23:12.875Z,18.17
2023-01-22T10:23:59.998Z,14.32
2023-01-22T10:24:46.934Z,18.45
2023-01-22T10:25:34.002Z,18.27
2023-01-22T10:26:30.174Z,16.58